sensor_id;sensor_type;location;lat;lon;timestamp;pressure;altitude;pressure_sealevel;temperature;humidity
14067;BME280;7108;42.684;23.350;2023-02-14T00:02:10;96766.09;;;3.18;100.00
14067;BME280;7108;42.684;23.350;2023-02-14T00:04:35;96774.34;;;3.21;100.00
14067;BME280;7108;42.684;23.350;2023-02-14T00:07:08;96775.13;;;3.22;100.00
14067;BME280;7108;42.684;23.350;2023-02-14T00:09:34;96759.44;;;3.15;100.00
14067;BME280;7108;42.684;23.350;2023-02-14T00:11:59;96776.72;;;3.22;100.00
14067;BME280;7108;42.684;23.350;2023-02-14T00:14:25;96765.28;;;3.22;100.00
14067;BME280;7108;42.684;23.350;2023-02-14T00:17:09;96773.28;;;3.22;100.00
14067;BME280;7108;42.684;23.350;2023-02-14T00:19:34;96775.38;;;3.25;100.00
14067;BME280;7108;42.684;23.350;2023-02-14T00:22:00;96774.59;;;3.24;100.00
14067;BME280;7108;42.684;23.350;2023-02-14T00:24:26;96775.69;;;3.19;100.00
14067;BME280;7108;42.684;23.350;2023-02-14T00:26:52;96769.00;;;3.21;100.00
14067;BME280;7108;42.684;23.350;2023-02-14T00:29:20;96776.47;;;3.24;100.00
14067;BME280;7108;42.684;23.350;2023-02-14T00:31:46;96765.28;;;3.22;100.00
14067;BME280;7108;42.684;23.350;2023-02-14T00:34:14;96763.94;;;3.24;100.00
14067;BME280;7108;42.684;23.350;2023-02-14T00:36:40;96761.00;;;3.26;100.00
14067;BME280;7108;42.684;23.350;2023-02-14T00:39:08;96769.81;;;3.26;100.00
14067;BME280;7108;42.684;23.350;2023-02-14T00:41:34;96757.28;;;3.27;100.00
14067;BME280;7108;42.684;23.350;2023-02-14T00:44:00;96758.03;;;3.32;100.00
14067;BME280;7108;42.684;23.350;2023-02-14T00:46:29;96774.53;;;3.34;100.00
14067;BME280;7108;42.684;23.350;2023-02-14T00:48:55;96757.53;;;3.30;100.00
14067;BME280;7108;42.684;23.350;2023-02-14T00:51:21;96750.59;;;3.29;100.00
14067;BME280;7108;42.684;23.350;2023-02-14T00:53:48;96762.78;;;3.40;100.00
14067;BME280;7108;42.684;23.350;2023-02-14T00:56:14;96750.28;;;3.36;100.00
14067;BME280;7108;42.684;23.350;2023-02-14T00:58:40;96752.41;;;3.39;100.00
14067;BME280;7108;42.684;23.350;2023-02-14T01:01:06;96743.63;;;3.38;100.00
14067;BME280;7108;42.684;23.350;2023-02-14T01:03:32;96748.66;;;3.40;100.00
14067;BME280;7108;42.684;23.350;2023-02-14T01:05:58;96749.19;;;3.42;100.00
14067;BME280;7108;42.684;23.350;2023-02-14T01:08:24;96738.81;;;3.40;100.00
14067;BME280;7108;42.684;23.350;2023-02-14T01:10:49;96747.13;;;3.34;100.00
14067;BME280;7108;42.684;23.350;2023-02-14T01:13:15;96724.78;;;3.25;100.00
14067;BME280;7108;42.684;23.350;2023-02-14T01:15:46;96737.31;;;3.24;100.00
14067;BME280;7108;42.684;23.350;2023-02-14T01:18:12;96737.81;;;3.31;100.00
14067;BME280;7108;42.684;23.350;2023-02-14T01:20:38;96741.81;;;3.29;100.00
14067;BME280;7108;42.684;23.350;2023-02-14T01:23:03;96729.28;;;3.29;100.00
14067;BME280;7108;42.684;23.350;2023-02-14T01:25:29;96722.94;;;3.25;100.00
14067;BME280;7108;42.684;23.350;2023-02-14T01:27:54;96720.56;;;3.24;100.00
14067;BME280;7108;42.684;23.350;2023-02-14T01:30:20;96730.09;;;3.25;100.00
14067;BME280;7108;42.684;23.350;2023-02-14T01:32:45;96729.06;;;3.21;100.00
14067;BME280;7108;42.684;23.350;2023-02-14T01:35:11;96722.97;;;3.21;100.00
14067;BME280;7108;42.684;23.350;2023-02-14T01:37:36;96708.06;;;3.20;100.00
14067;BME280;7108;42.684;23.350;2023-02-14T01:40:03;96701.13;;;3.19;100.00
14067;BME280;7108;42.684;23.350;2023-02-14T01:42:28;96700.03;;;3.24;100.00
14067;BME280;7108;42.684;23.350;2023-02-14T01:45:01;96701.63;;;3.25;100.00
14067;BME280;7108;42.684;23.350;2023-02-14T01:47:29;96693.91;;;3.24;100.00
14067;BME280;7108;42.684;23.350;2023-02-14T01:50:04;96685.41;;;3.22;100.00
14067;BME280;7108;42.684;23.350;2023-02-14T01:52:41;96687.78;;;3.23;100.00
14067;BME280;7108;42.684;23.350;2023-02-14T01:55:29;96681.94;;;3.17;100.00
14067;BME280;7108;42.684;23.350;2023-02-14T01:58:02;96685.94;;;3.19;100.00
14067;BME280;7108;42.684;23.350;2023-02-14T02:00:28;96677.97;;;3.14;100.00
14067;BME280;7108;42.684;23.350;2023-02-14T02:03:18;96689.13;;;3.21;100.00
14067;BME280;7108;42.684;23.350;2023-02-14T02:05:47;96691.50;;;3.22;100.00
14067;BME280;7108;42.684;23.350;2023-02-14T02:08:13;96681.91;;;3.22;100.00
14067;BME280;7108;42.684;23.350;2023-02-14T02:10:38;96687.03;;;3.18;100.00
14067;BME280;7108;42.684;23.350;2023-02-14T02:13:06;96684.06;;;3.24;100.00
14067;BME280;7108;42.684;23.350;2023-02-14T02:15:46;96687.50;;;3.25;100.00
14067;BME280;7108;42.684;23.350;2023-02-14T02:30:00;96673.94;;;3.22;100.00
14067;BME280;7108;42.684;23.350;2023-02-14T02:44:26;96650.50;;;3.23;100.00
14067;BME280;7108;42.684;23.350;2023-02-14T02:47:10;96645.69;;;3.25;100.00
14067;BME280;7108;42.684;23.350;2023-02-14T02:50:01;96642.22;;;3.25;100.00
14067;BME280;7108;42.684;23.350;2023-02-14T02:58:23;96651.03;;;3.25;100.00
14067;BME280;7108;42.684;23.350;2023-02-14T03:00:51;96657.69;;;3.23;100.00
14067;BME280;7108;42.684;23.350;2023-02-14T03:03:20;96659.84;;;3.21;100.00
14067;BME280;7108;42.684;23.350;2023-02-14T03:06:04;96656.63;;;3.19;100.00
14067;BME280;7108;42.684;23.350;2023-02-14T03:08:30;96649.75;;;3.18;100.00
14067;BME280;7108;42.684;23.350;2023-02-14T03:10:55;96661.16;;;3.23;100.00
14067;BME280;7108;42.684;23.350;2023-02-14T03:19:09;96654.78;;;3.20;100.00
14067;BME280;7108;42.684;23.350;2023-02-14T03:22:22;96645.78;;;3.16;100.00
14067;BME280;7108;42.684;23.350;2023-02-14T03:25:03;96637.25;;;3.14;100.00
14067;BME280;7108;42.684;23.350;2023-02-14T03:27:31;96634.84;;;3.17;100.00
14067;BME280;7108;42.684;23.350;2023-02-14T03:40:28;96627.94;;;3.11;100.00
14067;BME280;7108;42.684;23.350;2023-02-14T03:42:59;96639.38;;;3.12;100.00
14067;BME280;7108;42.684;23.350;2023-02-14T03:48:08;96633.56;;;3.10;100.00
14067;BME280;7108;42.684;23.350;2023-02-14T03:50:37;96604.88;;;2.97;100.00
14067;BME280;7108;42.684;23.350;2023-02-14T03:53:07;96620.00;;;3.06;100.00
14067;BME280;7108;42.684;23.350;2023-02-14T03:55:46;96617.63;;;3.05;100.00
14067;BME280;7108;42.684;23.350;2023-02-14T03:58:22;96607.25;;;2.98;100.00
14067;BME280;7108;42.684;23.350;2023-02-14T04:00:51;96591.31;;;2.93;100.00
14067;BME280;7108;42.684;23.350;2023-02-14T04:03:20;96601.94;;;3.03;100.00
14067;BME280;7108;42.684;23.350;2023-02-14T04:05:48;96603.00;;;3.02;100.00
14067;BME280;7108;42.684;23.350;2023-02-14T04:08:21;96587.06;;;2.97;100.00
14067;BME280;7108;42.684;23.350;2023-02-14T04:10:48;96599.06;;;2.95;100.00
14067;BME280;7108;42.684;23.350;2023-02-14T04:13:14;96591.31;;;2.93;100.00
14067;BME280;7108;42.684;23.350;2023-02-14T04:15:39;96605.69;;;2.97;100.00
14067;BME280;7108;42.684;23.350;2023-02-14T04:18:05;96603.84;;;2.93;100.00
14067;BME280;7108;42.684;23.350;2023-02-14T04:20:48;96610.50;;;2.90;100.00
14067;BME280;7108;42.684;23.350;2023-02-14T04:23:14;96604.66;;;2.88;100.00
14067;BME280;7108;42.684;23.350;2023-02-14T04:25:40;96607.31;;;2.88;100.00
14067;BME280;7108;42.684;23.350;2023-02-14T04:28:07;96598.56;;;2.88;100.00
14067;BME280;7108;42.684;23.350;2023-02-14T04:30:33;96590.84;;;2.86;100.00
14067;BME280;7108;42.684;23.350;2023-02-14T04:32:58;96595.09;;;2.87;100.00
14067;BME280;7108;42.684;23.350;2023-02-14T04:35:23;96603.06;;;2.92;100.00
14067;BME280;7108;42.684;23.350;2023-02-14T04:37:49;96593.97;;;2.93;100.00
14067;BME280;7108;42.684;23.350;2023-02-14T04:40:14;96594.53;;;2.90;100.00
14067;BME280;7108;42.684;23.350;2023-02-14T04:42:42;96584.97;;;2.89;100.00
14067;BME280;7108;42.684;23.350;2023-02-14T04:45:08;96578.56;;;2.90;100.00
14067;BME280;7108;42.684;23.350;2023-02-14T04:47:33;96577.81;;;2.85;100.00
14067;BME280;7108;42.684;23.350;2023-02-14T04:49:59;96569.03;;;2.84;100.00
14067;BME280;7108;42.684;23.350;2023-02-14T04:52:24;96572.69;;;2.93;100.00
14067;BME280;7108;42.684;23.350;2023-02-14T04:54:50;96568.22;;;2.89;100.00
14067;BME280;7108;42.684;23.350;2023-02-14T04:57:15;96566.88;;;2.91;100.00
14067;BME280;7108;42.684;23.350;2023-02-14T04:59:41;96568.50;;;2.87;100.00
14067;BME280;7108;42.684;23.350;2023-02-14T05:02:07;96574.06;;;2.86;100.00
14067;BME280;7108;42.684;23.350;2023-02-14T05:04:32;96581.22;;;2.90;100.00
14067;BME280;7108;42.684;23.350;2023-02-14T05:06:57;96573.31;;;2.80;100.00
14067;BME280;7108;42.684;23.350;2023-02-14T05:09:23;96586.59;;;2.85;100.00
14067;BME280;7108;42.684;23.350;2023-02-14T05:11:48;96578.63;;;2.85;100.00
14067;BME280;7108;42.684;23.350;2023-02-14T05:14:14;96578.31;;;2.87;100.00
14067;BME280;7108;42.684;23.350;2023-02-14T05:16:39;96584.22;;;2.84;100.00
14067;BME280;7108;42.684;23.350;2023-02-14T05:19:05;96567.72;;;2.82;100.00
14067;BME280;7108;42.684;23.350;2023-02-14T05:21:30;96582.34;;;2.84;100.00
14067;BME280;7108;42.684;23.350;2023-02-14T05:23:58;96575.94;;;2.85;100.00
14067;BME280;7108;42.684;23.350;2023-02-14T05:26:24;96573.81;;;2.87;100.00
14067;BME280;7108;42.684;23.350;2023-02-14T05:28:49;96572.97;;;2.92;100.00
14067;BME280;7108;42.684;23.350;2023-02-14T05:31:15;96580.41;;;2.95;100.00
14067;BME280;7108;42.684;23.350;2023-02-14T05:33:40;96568.50;;;2.87;100.00
14067;BME280;7108;42.684;23.350;2023-02-14T05:36:06;96570.06;;;2.88;100.00
14067;BME280;7108;42.684;23.350;2023-02-14T05:38:31;96567.72;;;2.82;100.00
14067;BME280;7108;42.684;23.350;2023-02-14T05:40:59;96583.88;;;2.95;100.00
14067;BME280;7108;42.684;23.350;2023-02-14T05:43:25;96575.09;;;2.95;100.00
14067;BME280;7108;42.684;23.350;2023-02-14T05:45:50;96559.91;;;2.95;100.00
14067;BME280;7108;42.684;23.350;2023-02-14T05:48:16;96567.31;;;2.98;100.00
14067;BME280;7108;42.684;23.350;2023-02-14T05:50:42;96560.13;;;3.04;100.00
14067;BME280;7108;42.684;23.350;2023-02-14T05:53:09;96566.81;;;2.96;100.00
14067;BME280;7108;42.684;23.350;2023-02-14T05:55:35;96574.22;;;3.04;100.00
14067;BME280;7108;42.684;23.350;2023-02-14T05:58:00;96572.56;;;3.13;100.00
14067;BME280;7108;42.684;23.350;2023-02-14T06:00:26;96566.97;;;3.15;100.00
14067;BME280;7108;42.684;23.350;2023-02-14T06:02:52;96565.34;;;3.14;100.00
14067;BME280;7108;42.684;23.350;2023-02-14T06:05:17;96560.84;;;3.09;100.00
14067;BME280;7108;42.684;23.350;2023-02-14T06:07:44;96573.59;;;3.17;100.00
14067;BME280;7108;42.684;23.350;2023-02-14T06:10:19;96570.06;;;3.26;100.00
14067;BME280;7108;42.684;23.350;2023-02-14T06:12:47;96582.19;;;3.37;100.00
14067;BME280;7108;42.684;23.350;2023-02-14T06:15:13;96574.78;;;3.34;100.00
14067;BME280;7108;42.684;23.350;2023-02-14T06:17:39;96578.84;;;3.55;100.00
14067;BME280;7108;42.684;23.350;2023-02-14T06:20:05;96576.66;;;3.62;100.00
14067;BME280;7108;42.684;23.350;2023-02-14T06:22:31;96580.69;;;3.60;100.00
14067;BME280;7108;42.684;23.350;2023-02-14T06:24:56;96568.44;;;3.59;100.00
14067;BME280;7108;42.684;23.350;2023-02-14T06:27:22;96579.59;;;3.61;100.00
14067;BME280;7108;42.684;23.350;2023-02-14T06:29:48;96568.47;;;3.54;100.00
14067;BME280;7108;42.684;23.350;2023-02-14T06:32:13;96578.06;;;3.55;100.00
14067;BME280;7108;42.684;23.350;2023-02-14T06:34:39;96573.44;;;3.65;100.00
14067;BME280;7108;42.684;23.350;2023-02-14T06:37:05;96574.44;;;3.69;100.00
14067;BME280;7108;42.684;23.350;2023-02-14T06:39:31;96572.84;;;3.68;100.00
14067;BME280;7108;42.684;23.350;2023-02-14T06:41:57;96569.75;;;3.61;100.00
14067;BME280;7108;42.684;23.350;2023-02-14T06:44:22;96567.97;;;3.52;100.00
14067;BME280;7108;42.684;23.350;2023-02-14T06:46:48;96584.13;;;3.60;100.00
14067;BME280;7108;42.684;23.350;2023-02-14T06:49:13;96564.22;;;3.53;100.00
14067;BME280;7108;42.684;23.350;2023-02-14T06:51:39;96566.22;;;3.66;100.00
14067;BME280;7108;42.684;23.350;2023-02-14T06:54:04;96563.06;;;3.64;100.00
14067;BME280;7108;42.684;23.350;2023-02-14T06:56:30;96567.75;;;3.72;100.00
14067;BME280;7108;42.684;23.350;2023-02-14T06:58:55;96561.97;;;3.65;100.00
14067;BME280;7108;42.684;23.350;2023-02-14T07:01:21;96563.00;;;3.69;100.00
14067;BME280;7108;42.684;23.350;2023-02-14T07:03:46;96556.22;;;3.81;100.00
14067;BME280;7108;42.684;23.350;2023-02-14T07:06:11;96564.84;;;3.68;100.00
14067;BME280;7108;42.684;23.350;2023-02-14T07:08:37;96543.03;;;3.66;100.00
14067;BME280;7108;42.684;23.350;2023-02-14T07:11:05;96533.69;;;3.69;100.00
14067;BME280;7108;42.684;23.350;2023-02-14T07:13:30;96542.69;;;3.73;100.00
14067;BME280;7108;42.684;23.350;2023-02-14T07:15:56;96544.28;;;3.74;100.00
14067;BME280;7108;42.684;23.350;2023-02-14T07:18:21;96550.94;;;3.76;100.00
14067;BME280;7108;42.684;23.350;2023-02-14T07:20:50;96547.47;;;3.76;100.00
14067;BME280;7108;42.684;23.350;2023-02-14T07:23:16;96555.97;;;3.78;100.00
14067;BME280;7108;42.684;23.350;2023-02-14T07:25:42;96543.72;;;3.77;100.00
14067;BME280;7108;42.684;23.350;2023-02-14T07:28:07;96550.88;;;3.81;100.00
14067;BME280;7108;42.684;23.350;2023-02-14T07:30:33;96558.59;;;3.83;100.00
14067;BME280;7108;42.684;23.350;2023-02-14T07:32:58;96565.50;;;3.84;100.00
14067;BME280;7108;42.684;23.350;2023-02-14T07:35:24;96563.97;;;3.78;100.00
14067;BME280;7108;42.684;23.350;2023-02-14T07:37:50;96568.22;;;3.79;100.00
14067;BME280;7108;42.684;23.350;2023-02-14T07:40:15;96576.22;;;3.79;100.00
14067;BME280;7108;42.684;23.350;2023-02-14T07:42:41;96558.59;;;3.83;100.00
14067;BME280;7108;42.684;23.350;2023-02-14T07:45:08;96561.31;;;3.78;100.00
14067;BME280;7108;42.684;23.350;2023-02-14T07:47:33;96567.03;;;3.66;100.00
14067;BME280;7108;42.684;23.350;2023-02-14T07:50:01;96582.13;;;3.76;100.00
14067;BME280;7108;42.684;23.350;2023-02-14T07:52:27;96577.41;;;3.68;100.00
14067;BME280;7108;42.684;23.350;2023-02-14T07:54:52;96592.84;;;3.71;100.00
14067;BME280;7108;42.684;23.350;2023-02-14T07:57:18;96583.13;;;3.56;100.00
14067;BME280;7108;42.684;23.350;2023-02-14T07:59:43;96577.16;;;3.64;100.00
14067;BME280;7108;42.684;23.350;2023-02-14T08:02:11;96589.75;;;3.59;100.00
14067;BME280;7108;42.684;23.350;2023-02-14T08:04:36;96591.88;;;3.57;100.00
14067;BME280;7108;42.684;23.350;2023-02-14T08:07:02;96586.56;;;3.57;100.00
14067;BME280;7108;42.684;23.350;2023-02-14T08:09:27;96600.13;;;3.60;100.00
14067;BME280;7108;42.684;23.350;2023-02-14T08:11:54;96598.19;;;3.66;100.00
14067;BME280;7108;42.684;23.350;2023-02-14T08:14:39;96587.81;;;3.64;100.00
14067;BME280;7108;42.684;23.350;2023-02-14T08:17:05;96597.38;;;3.70;100.00
14067;BME280;7108;42.684;23.350;2023-02-14T08:19:32;96600.31;;;3.69;100.00
14067;BME280;7108;42.684;23.350;2023-02-14T08:21:57;96607.25;;;3.70;100.00
14067;BME280;7108;42.684;23.350;2023-02-14T08:24:23;96601.16;;;3.64;100.00
14067;BME280;7108;42.684;23.350;2023-02-14T08:26:51;96611.06;;;3.59;100.00
14067;BME280;7108;42.684;23.350;2023-02-14T08:29:17;96615.78;;;3.67;100.00
14067;BME280;7108;42.684;23.350;2023-02-14T08:31:43;96603.75;;;3.69;100.00
14067;BME280;7108;42.684;23.350;2023-02-14T08:34:09;96606.47;;;3.64;100.00
14067;BME280;7108;42.684;23.350;2023-02-14T08:36:37;96563.09;;;3.59;100.00
14067;BME280;7108;42.684;23.350;2023-02-14T08:39:04;96587.53;;;3.66;100.00
14067;BME280;7108;42.684;23.350;2023-02-14T08:41:29;96600.38;;;3.64;100.00
14067;BME280;7108;42.684;23.350;2023-02-14T08:43:55;96607.03;;;3.61;100.00
14067;BME280;7108;42.684;23.350;2023-02-14T08:46:26;96624.44;;;3.54;100.00
14067;BME280;7108;42.684;23.350;2023-02-14T08:48:52;96615.13;;;3.51;100.00
14067;BME280;7108;42.684;23.350;2023-02-14T08:51:19;96604.19;;;3.53;100.00
14067;BME280;7108;42.684;23.350;2023-02-14T08:53:44;96615.13;;;3.51;100.00
14067;BME280;7108;42.684;23.350;2023-02-14T08:56:12;96623.41;;;3.50;100.00
14067;BME280;7108;42.684;23.350;2023-02-14T08:58:38;96628.25;;;3.43;100.00
14067;BME280;7108;42.684;23.350;2023-02-14T09:01:12;96618.41;;;3.38;100.00
14067;BME280;7108;42.684;23.350;2023-02-14T09:03:38;96625.31;;;3.44;100.00
14067;BME280;7108;42.684;23.350;2023-02-14T09:06:09;96608.22;;;3.50;100.00
14067;BME280;7108;42.684;23.350;2023-02-14T09:08:35;96602.31;;;3.53;100.00
14067;BME280;7108;42.684;23.350;2023-02-14T09:11:09;96611.84;;;3.59;100.00
14067;BME280;7108;42.684;23.350;2023-02-14T09:13:36;96609.19;;;3.59;100.00
14067;BME280;7108;42.684;23.350;2023-02-14T09:16:03;96597.84;;;3.49;100.00
14067;BME280;7108;42.684;23.350;2023-02-14T09:18:29;96590.63;;;3.49;100.00
14067;BME280;7108;42.684;23.350;2023-02-14T09:20:54;96586.81;;;3.60;100.00
14067;BME280;7108;42.684;23.350;2023-02-14T09:23:19;96581.66;;;3.69;100.00
14067;BME280;7108;42.684;23.350;2023-02-14T09:25:45;96584.84;;;3.71;100.00
14067;BME280;7108;42.684;23.350;2023-02-14T09:28:10;96599.50;;;3.68;100.00
14067;BME280;7108;42.684;23.350;2023-02-14T09:30:36;96587.59;;;3.61;100.00
14067;BME280;7108;42.684;23.350;2023-02-14T09:33:01;96601.97;;;3.65;100.00
14067;BME280;7108;42.684;23.350;2023-02-14T09:35:29;96593.97;;;3.65;100.00
14067;BME280;7108;42.684;23.350;2023-02-14T09:37:55;96593.00;;;3.51;100.00
14067;BME280;7108;42.684;23.350;2023-02-14T09:40:20;96594.59;;;3.52;100.00
14067;BME280;7108;42.684;23.350;2023-02-14T09:45:26;96577.25;;;3.54;100.00
14067;BME280;7108;42.684;23.350;2023-02-14T09:48:00;96578.56;;;3.57;100.00
14067;BME280;7108;42.684;23.350;2023-02-14T09:53:07;96574.84;;;3.58;100.00
14067;BME280;7108;42.684;23.350;2023-02-14T09:55:53;96587.28;;;3.67;100.00
14067;BME280;7108;42.684;23.350;2023-02-14T10:01:23;96555.34;;;3.62;100.00
14067;BME280;7108;42.684;23.350;2023-02-14T10:04:23;96569.50;;;3.58;100.00
14067;BME280;7108;42.684;23.350;2023-02-14T10:07:30;96560.25;;;3.50;100.00
14067;BME280;7108;42.684;23.350;2023-02-14T10:12:49;96570.13;;;3.50;100.00
14067;BME280;7108;42.684;23.350;2023-02-14T10:15:47;96583.66;;;3.53;100.00
14067;BME280;7108;42.684;23.350;2023-02-14T10:18:30;96569.25;;;3.54;100.00
14067;BME280;7108;42.684;23.350;2023-02-14T10:21:01;96574.06;;;3.57;100.00
14067;BME280;7108;42.684;23.350;2023-02-14T10:23:33;96543.50;;;3.45;100.00
14067;BME280;7108;42.684;23.350;2023-02-14T10:26:15;96556.81;;;3.50;100.00
14067;BME280;7108;42.684;23.350;2023-02-14T10:28:45;96550.03;;;3.34;100.00
14067;BME280;7108;42.684;23.350;2023-02-14T10:31:33;96557.34;;;3.47;100.00
14067;BME280;7108;42.684;23.350;2023-02-14T10:37:03;96559.31;;;3.36;100.00
14067;BME280;7108;42.684;23.350;2023-02-14T10:50:56;96549.16;;;3.38;100.00
14067;BME280;7108;42.684;23.350;2023-02-14T10:53:27;96559.78;;;3.43;100.00
14067;BME280;7108;42.684;23.350;2023-02-14T10:56:00;96545.38;;;3.44;100.00
14067;BME280;7108;42.684;23.350;2023-02-14T10:58:30;96542.72;;;3.44;100.00
14067;BME280;7108;42.684;23.350;2023-02-14T11:03:27;96538.75;;;3.42;100.00
14067;BME280;7108;42.684;23.350;2023-02-14T11:05:53;96539.03;;;3.40;100.00
14067;BME280;7108;42.684;23.350;2023-02-14T11:08:32;96537.91;;;3.46;100.00
14067;BME280;7108;42.684;23.350;2023-02-14T11:13:44;96538.97;;;3.45;100.00
14067;BME280;7108;42.684;23.350;2023-02-14T11:16:17;96552.53;;;3.49;100.00
14067;BME280;7108;42.684;23.350;2023-02-14T11:18:43;96541.13;;;3.43;100.00
14067;BME280;7108;42.684;23.350;2023-02-14T11:21:09;96539.31;;;3.39;100.00
14067;BME280;7108;42.684;23.350;2023-02-14T11:23:47;96538.50;;;3.38;100.00
14067;BME280;7108;42.684;23.350;2023-02-14T11:26:22;96536.66;;;3.39;100.00
14067;BME280;7108;42.684;23.350;2023-02-14T11:29:09;96530.47;;;3.43;100.00
14067;BME280;7108;42.684;23.350;2023-02-14T11:31:36;96532.06;;;3.44;100.00
14067;BME280;7108;42.684;23.350;2023-02-14T11:34:21;96519.91;;;3.33;100.00
14067;BME280;7108;42.684;23.350;2023-02-14T11:36:48;96513.75;;;3.38;100.00
14067;BME280;7108;42.684;23.350;2023-02-14T11:39:20;96525.44;;;3.42;100.00
14067;BME280;7108;42.684;23.350;2023-02-14T11:41:52;96513.69;;;3.43;100.00
14067;BME280;7108;42.684;23.350;2023-02-14T11:44:22;96514.72;;;3.47;100.00
14067;BME280;7108;42.684;23.350;2023-02-14T11:46:52;96508.22;;;3.58;100.00
14067;BME280;7108;42.684;23.350;2023-02-14T11:49:25;96497.41;;;3.73;100.00
14067;BME280;7108;42.684;23.350;2023-02-14T11:51:53;96488.78;;;3.81;100.00
14067;BME280;7108;42.684;23.350;2023-02-14T11:54:34;96489.75;;;3.89;100.00
14067;BME280;7108;42.684;23.350;2023-02-14T11:59:50;96480.44;;;3.87;100.00
14067;BME280;7108;42.684;23.350;2023-02-14T12:02:37;96482.03;;;3.88;100.00
14067;BME280;7108;42.684;23.350;2023-02-14T12:05:14;96479.19;;;3.80;100.00
14067;BME280;7108;42.684;23.350;2023-02-14T12:07:43;96463.63;;;3.87;100.00
14067;BME280;7108;42.684;23.350;2023-02-14T12:12:48;96461.94;;;3.95;100.00
14067;BME280;7108;42.684;23.350;2023-02-14T12:17:57;96469.53;;;4.07;100.00
14067;BME280;7108;42.684;23.350;2023-02-14T12:23:14;96466.44;;;4.18;100.00
14067;BME280;7108;42.684;23.350;2023-02-14T12:25:47;96458.34;;;4.23;100.00
14067;BME280;7108;42.684;23.350;2023-02-14T12:28:21;96457.28;;;4.24;100.00
14067;BME280;7108;42.684;23.350;2023-02-14T12:30:50;96444.00;;;4.19;100.00
14067;BME280;7108;42.684;23.350;2023-02-14T12:33:18;96442.09;;;4.25;100.00
14067;BME280;7108;42.684;23.350;2023-02-14T12:35:58;96447.13;;;4.26;100.00
14067;BME280;7108;42.684;23.350;2023-02-14T12:49:58;96440.28;;;4.39;100.00
14067;BME280;7108;42.684;23.350;2023-02-14T12:57:50;96459.41;;;4.46;100.00
14067;BME280;7108;42.684;23.350;2023-02-14T13:00:59;96448.44;;;4.47;100.00
14067;BME280;7108;42.684;23.350;2023-02-14T13:08:47;96436.53;;;4.40;100.00
14067;BME280;7108;42.684;23.350;2023-02-14T13:11:26;96454.19;;;4.36;100.00
14067;BME280;7108;42.684;23.350;2023-02-14T13:16:48;96434.94;;;4.39;100.00
14067;BME280;7108;42.684;23.350;2023-02-14T13:19:32;96435.94;;;4.43;100.00
14067;BME280;7108;42.684;23.350;2023-02-14T13:22:02;96429.66;;;4.52;100.00
14067;BME280;7108;42.684;23.350;2023-02-14T13:24:40;96430.97;;;4.54;100.00
14067;BME280;7108;42.684;23.350;2023-02-14T13:27:11;96433.28;;;4.43;100.00
14067;BME280;7108;42.684;23.350;2023-02-14T13:29:50;96432.84;;;4.36;100.00
14067;BME280;7108;42.684;23.350;2023-02-14T13:32:21;96433.44;;;4.33;100.00
14067;BME280;7108;42.684;23.350;2023-02-14T13:34:49;96429.16;;;4.32;100.00
14067;BME280;7108;42.684;23.350;2023-02-14T13:37:20;96428.69;;;4.30;100.00
14067;BME280;7108;42.684;23.350;2023-02-14T13:40:02;96426.66;;;4.22;100.00
14067;BME280;7108;42.684;23.350;2023-02-14T13:51:07;96440.44;;;4.29;100.00
14067;BME280;7108;42.684;23.350;2023-02-14T13:53:41;96426.72;;;4.17;100.00
14067;BME280;7108;42.684;23.350;2023-02-14T14:03:59;96435.22;;;4.19;100.00
14067;BME280;7108;42.684;23.350;2023-02-14T14:06:25;96436.16;;;4.28;100.00
14067;BME280;7108;42.684;23.350;2023-02-14T14:08:52;96439.34;;;4.30;100.00
14067;BME280;7108;42.684;23.350;2023-02-14T14:16:56;96438.53;;;4.11;100.00
14067;BME280;7108;42.684;23.350;2023-02-14T14:22:12;96441.63;;;4.18;100.00
14067;BME280;7108;42.684;23.350;2023-02-14T14:24:40;96448.91;;;4.31;100.00
14067;BME280;7108;42.684;23.350;2023-02-14T14:27:20;96436.47;;;4.26;100.00
14067;BME280;7108;42.684;23.350;2023-02-14T14:29:55;96435.09;;;4.29;100.00
14067;BME280;7108;42.684;23.350;2023-02-14T14:32:31;96429.91;;;4.37;100.00
14067;BME280;7108;42.684;23.350;2023-02-14T14:35:20;96419.78;;;4.34;100.00
14067;BME280;7108;42.684;23.350;2023-02-14T14:37:48;96415.44;;;4.38;100.00
14067;BME280;7108;42.684;23.350;2023-02-14T14:40:32;96417.28;;;4.24;100.00
14067;BME280;7108;42.684;23.350;2023-02-14T14:43:05;96419.09;;;4.29;100.00
14067;BME280;7108;42.684;23.350;2023-02-14T14:45:34;96406.59;;;4.24;100.00
14067;BME280;7108;42.684;23.350;2023-02-14T14:48:03;96409.06;;;4.21;100.00
14067;BME280;7108;42.684;23.350;2023-02-14T14:50:34;96414.13;;;4.22;100.00
14067;BME280;7108;42.684;23.350;2023-02-14T14:53:03;96414.81;;;4.28;100.00
14067;BME280;7108;42.684;23.350;2023-02-14T14:55:35;96406.13;;;4.22;100.00
14067;BME280;7108;42.684;23.350;2023-02-14T14:58:06;96422.53;;;4.29;100.00
14067;BME280;7108;42.684;23.350;2023-02-14T15:00:51;96420.16;;;4.28;100.00
14067;BME280;7108;42.684;23.350;2023-02-14T15:06:15;96416.72;;;4.27;100.00
14067;BME280;7108;42.684;23.350;2023-02-14T15:08:41;96421.97;;;4.32;100.00
14067;BME280;7108;42.684;23.350;2023-02-14T15:11:15;96429.38;;;4.35;100.00
14067;BME280;7108;42.684;23.350;2023-02-14T15:14:04;96437.38;;;4.35;100.00
14067;BME280;7108;42.684;23.350;2023-02-14T15:16:44;96430.53;;;4.29;100.00
14067;BME280;7108;42.684;23.350;2023-02-14T15:19:21;96434.88;;;4.25;100.00
14067;BME280;7108;42.684;23.350;2023-02-14T15:21:51;96439.41;;;4.25;100.00
14067;BME280;7108;42.684;23.350;2023-02-14T15:24:17;96430.75;;;4.33;100.00
14067;BME280;7108;42.684;23.350;2023-02-14T15:26:45;96433.34;;;4.38;100.00
14067;BME280;7108;42.684;23.350;2023-02-14T15:29:24;96433.72;;;4.31;100.00
14067;BME280;7108;42.684;23.350;2023-02-14T15:31:51;96442.28;;;4.28;100.00
14067;BME280;7108;42.684;23.350;2023-02-14T15:34:24;96436.88;;;4.33;100.00
14067;BME280;7108;42.684;23.350;2023-02-14T15:36:50;96436.47;;;4.26;100.00